createdAt,value
2023-02-23T00:00:40.808Z,1.00
2023-02-23T00:05:43.391Z,0.95
2023-02-23T00:10:45.170Z,0.92
2023-02-23T00:15:46.866Z,0.90
2023-02-23T00:20:57.637Z,0.89
2023-02-23T00:25:59.527Z,0.82
2023-02-23T00:31:04.368Z,0.79
2023-02-23T00:36:08.668Z,0.77
2023-02-23T00:41:14.491Z,0.76
2023-02-23T00:46:21.497Z,0.73
2023-02-23T00:51:27.279Z,0.71
2023-02-23T00:56:29.311Z,0.74
2023-02-23T01:01:32.487Z,0.76
2023-02-23T01:06:37.607Z,0.74
2023-02-23T01:11:41.467Z,0.74
2023-02-23T01:16:43.194Z,0.75
2023-02-23T01:21:45.046Z,0.75
2023-02-23T01:26:47.627Z,0.76
2023-02-23T01:31:53.152Z,0.77
2023-02-23T01:36:54.849Z,0.76
2023-02-23T01:41:56.708Z,0.75
2023-02-23T01:46:58.443Z,0.74
2023-02-23T01:52:19.706Z,0.69
2023-02-23T01:57:27.124Z,0.63
2023-02-23T02:02:33.761Z,0.59
2023-02-23T02:07:36.835Z,0.57
2023-02-23T02:12:40.235Z,0.55
2023-02-23T02:18:21.474Z,0.54
2023-02-23T02:23:42.182Z,0.53
2023-02-23T02:29:04.071Z,0.52
2023-02-23T02:34:27.489Z,0.53
2023-02-23T02:40:18.373Z,0.51
2023-02-23T02:45:22.780Z,0.49
2023-02-23T02:50:40.264Z,0.49
2023-02-23T02:55:44.082Z,0.47
2023-02-23T03:01:09.108Z,0.43
2023-02-23T03:06:29.618Z,0.42
2023-02-23T03:11:57.109Z,0.41
2023-02-23T03:17:56.558Z,0.36
2023-02-23T03:23:25.397Z,0.34
2023-02-23T03:29:00.172Z,0.30
2023-02-23T03:34:26.801Z,0.27
2023-02-23T03:40:04.824Z,0.27
2023-02-23T03:45:31.275Z,0.24
2023-02-23T03:50:59.429Z,0.21
2023-02-23T03:56:21.036Z,0.19
2023-02-23T04:01:43.779Z,0.17
2023-02-23T04:07:06.549Z,0.11
2023-02-23T04:12:36.859Z,0.08
2023-02-23T04:17:39.564Z,0.07
2023-02-23T04:22:41.330Z,0.02
2023-02-23T04:27:43.080Z,-0.01
2023-02-23T04:32:45.974Z,-0.01
2023-02-23T04:37:47.961Z,-0.05
2023-02-23T04:42:49.854Z,-0.06
2023-02-23T04:47:52.205Z,-0.06
2023-02-23T04:52:53.950Z,-0.08
2023-02-23T04:58:01.011Z,-0.08
2023-02-23T05:03:02.975Z,-0.06
2023-02-23T05:08:04.914Z,-0.08
2023-02-23T05:13:06.748Z,-0.13
2023-02-23T05:18:08.933Z,-0.17
2023-02-23T05:23:11.758Z,-0.16
2023-02-23T05:28:13.626Z,-0.17
2023-02-23T05:33:18.217Z,-0.17
2023-02-23T05:38:21.481Z,-0.16
2023-02-23T05:43:24.266Z,-0.17
2023-02-23T05:48:25.879Z,-0.20
2023-02-23T05:53:28.327Z,-0.22
2023-02-23T05:58:30.585Z,-0.19
2023-02-23T06:03:32.488Z,-0.17
2023-02-23T06:08:34.623Z,-0.11
2023-02-23T06:13:36.319Z,-0.02
2023-02-23T06:18:37.989Z,0.11
2023-02-23T06:23:39.781Z,0.23
2023-02-23T06:28:41.526Z,0.38
2023-02-23T06:33:43.232Z,0.48
2023-02-23T06:38:45.891Z,0.61
2023-02-23T06:43:47.556Z,0.80
2023-02-23T06:48:49.291Z,1.07
2023-02-23T06:53:53.319Z,1.31
2023-02-23T06:58:55.042Z,1.64
2023-02-23T07:03:56.715Z,1.99
2023-02-23T07:08:58.538Z,2.24
2023-02-23T07:14:01.615Z,2.43
2023-02-23T07:19:03.875Z,2.56
2023-02-23T07:24:06.038Z,2.63
2023-02-23T07:29:07.742Z,2.71
2023-02-23T07:34:09.642Z,2.84
2023-02-23T07:39:11.781Z,3.01
2023-02-23T07:44:13.454Z,3.19
2023-02-23T07:49:15.255Z,3.29
2023-02-23T07:54:17.789Z,3.47
2023-02-23T07:59:19.462Z,3.66
2023-02-23T08:04:21.235Z,3.78
2023-02-23T08:09:23.110Z,3.82
2023-02-23T08:14:25.044Z,3.89
2023-02-23T08:19:27.736Z,4.05
2023-02-23T08:24:31.012Z,4.29
2023-02-23T08:29:34.947Z,4.55
2023-02-23T08:34:41.422Z,4.83
2023-02-23T08:39:44.095Z,5.11
2023-02-23T08:44:46.267Z,5.45
2023-02-23T08:49:48.448Z,5.70
2023-02-23T08:54:50.299Z,5.88
2023-02-23T08:59:52.023Z,5.98
2023-02-23T09:04:54.109Z,6.13
2023-02-23T09:09:56.855Z,6.32
2023-02-23T09:14:58.625Z,6.50
2023-02-23T09:20:00.326Z,6.66
2023-02-23T09:25:01.972Z,6.82
2023-02-23T09:30:04.641Z,6.91
2023-02-23T09:35:06.957Z,7.01
2023-02-23T09:40:14.846Z,7.09
2023-02-23T09:45:26.557Z,7.14
2023-02-23T09:50:30.072Z,7.23
2023-02-23T09:55:32.687Z,7.40
2023-02-23T10:00:42.914Z,7.49
2023-02-23T10:05:51.881Z,7.61
2023-02-23T10:10:59.281Z,7.77
2023-02-23T10:16:12.517Z,7.89
2023-02-23T10:21:30.167Z,7.99
2023-02-23T10:26:54.184Z,7.98
2023-02-23T10:32:01.107Z,7.93
2023-02-23T10:37:05.813Z,7.98
2023-02-23T10:42:15.733Z,8.09
2023-02-23T10:47:21.451Z,8.21
2023-02-23T10:52:44.950Z,8.35
2023-02-23T10:57:47.321Z,8.50
2023-02-23T11:02:49.097Z,8.64
2023-02-23T11:08:08.889Z,8.79
2023-02-23T11:13:38.644Z,8.97
2023-02-23T11:18:51.619Z,9.10
2023-02-23T11:23:57.372Z,9.19
2023-02-23T11:29:05.793Z,9.33
2023-02-23T11:34:07.641Z,9.41
2023-02-23T11:39:23.396Z,9.55
2023-02-23T11:44:25.311Z,9.75
2023-02-23T11:49:33.247Z,9.87
2023-02-23T11:54:35.684Z,9.91
2023-02-23T11:59:40.504Z,9.92
2023-02-23T12:04:47.494Z,9.96
2023-02-23T12:09:58.670Z,9.97
2023-02-23T12:15:11.787Z,10.01
2023-02-23T12:20:26.947Z,10.08
2023-02-23T12:25:54.599Z,10.16
2023-02-23T12:31:23.715Z,10.18
2023-02-23T12:36:26.338Z,10.17
2023-02-23T12:41:41.417Z,10.23
2023-02-23T12:46:48.958Z,10.33
2023-02-23T12:52:02.145Z,10.47
2023-02-23T12:57:14.428Z,10.59
2023-02-23T13:02:28.888Z,10.66
2023-02-23T13:07:39.498Z,10.68
2023-02-23T13:13:04.853Z,10.69
2023-02-23T13:18:24.256Z,10.67
2023-02-23T13:23:39.645Z,10.66
2023-02-23T13:29:03.468Z,10.63
2023-02-23T13:34:12.203Z,10.66
2023-02-23T13:39:41.265Z,10.72
2023-02-23T13:44:56.148Z,10.79
2023-02-23T13:50:14.082Z,10.91
2023-02-23T13:55:32.669Z,10.89
2023-02-23T14:00:39.014Z,10.87
2023-02-23T14:05:45.184Z,10.84
2023-02-23T14:10:46.977Z,10.69
2023-02-23T14:16:10.638Z,10.58
2023-02-23T14:21:49.911Z,10.42
2023-02-23T14:27:03.497Z,10.28
2023-02-23T14:32:11.233Z,10.13
2023-02-23T14:37:25.511Z,10.05
2023-02-23T14:42:29.922Z,9.98
2023-02-23T14:47:42.460Z,9.91
2023-02-23T14:52:45.630Z,9.87
2023-02-23T14:57:47.324Z,9.85
2023-02-23T15:02:56.773Z,9.81
2023-02-23T15:08:06.131Z,9.77
2023-02-23T15:13:11.417Z,9.73
2023-02-23T15:18:22.601Z,9.70
2023-02-23T15:23:24.437Z,9.65
2023-02-23T15:28:29.611Z,9.60
2023-02-23T15:33:31.504Z,9.57
2023-02-23T15:38:44.006Z,9.56
2023-02-23T15:43:45.997Z,9.52
2023-02-23T15:48:50.955Z,9.42
2023-02-23T15:53:54.295Z,9.31
2023-02-23T15:59:02.313Z,9.17
2023-02-23T16:04:13.209Z,9.03
2023-02-23T16:09:22.251Z,8.92
2023-02-23T16:14:24.963Z,8.85
2023-02-23T16:19:28.911Z,8.76
2023-02-23T16:24:30.808Z,8.65
2023-02-23T16:29:41.618Z,8.52
2023-02-23T16:34:51.067Z,8.36
2023-02-23T16:39:52.752Z,8.25
2023-02-23T16:44:54.649Z,8.22
2023-02-23T16:49:56.337Z,8.20
2023-02-23T16:54:58.059Z,8.17
2023-02-23T17:00:00.420Z,8.14
2023-02-23T17:05:02.507Z,8.13
2023-02-23T17:10:05.832Z,8.14
2023-02-23T17:15:16.947Z,8.14
2023-02-23T17:20:21.508Z,8.12
2023-02-23T17:25:26.591Z,8.11
2023-02-23T17:30:29.302Z,8.08
2023-02-23T17:35:37.231Z,8.06
2023-02-23T17:40:39.456Z,8.04
2023-02-23T17:45:41.552Z,8.03
2023-02-23T17:50:43.975Z,8.01
2023-02-23T17:55:46.568Z,7.98
2023-02-23T18:00:48.872Z,7.97
2023-02-23T18:05:52.899Z,7.97
2023-02-23T18:10:55.379Z,7.92
2023-02-23T18:16:03.282Z,7.87
2023-02-23T18:21:12.034Z,7.81
2023-02-23T18:26:16.975Z,7.83
2023-02-23T18:31:22.719Z,7.86
2023-02-23T18:36:28.150Z,7.86
2023-02-23T18:41:33.133Z,7.83
2023-02-23T18:46:35.779Z,7.82
2023-02-23T18:51:37.710Z,7.81
2023-02-23T18:56:40.496Z,7.81
2023-02-23T19:01:45.547Z,7.87
2023-02-23T19:06:48.165Z,7.93
2023-02-23T19:11:50.929Z,7.94
2023-02-23T19:16:52.901Z,7.93
2023-02-23T19:21:58.187Z,7.95
2023-02-23T19:26:59.864Z,7.97
2023-02-23T19:32:02.591Z,8.00
2023-02-23T19:37:06.940Z,8.11
2023-02-23T19:42:09.515Z,8.24
2023-02-23T19:47:11.216Z,8.39
2023-02-23T19:52:12.966Z,8.51
2023-02-23T19:57:15.748Z,8.63
2023-02-23T20:02:20.011Z,8.74
2023-02-23T20:07:22.242Z,8.81
2023-02-23T20:12:23.923Z,8.86
2023-02-23T20:17:25.726Z,8.93
2023-02-23T20:22:29.729Z,8.95
2023-02-23T20:27:33.491Z,8.97
2023-02-23T20:32:36.029Z,9.00
2023-02-23T20:37:38.088Z,9.03
2023-02-23T20:42:41.721Z,9.03
2023-02-23T20:47:45.908Z,9.06
2023-02-23T20:52:50.037Z,9.06
2023-02-23T20:57:52.171Z,9.05
2023-02-23T21:02:55.591Z,9.02
2023-02-23T21:07:59.929Z,9.01
2023-02-23T21:13:02.195Z,8.99
2023-02-23T21:18:06.204Z,8.94
2023-02-23T21:23:07.946Z,8.93
2023-02-23T21:28:09.622Z,8.90
2023-02-23T21:33:11.287Z,8.85
2023-02-23T21:38:12.981Z,8.81
2023-02-23T21:43:18.469Z,8.78
2023-02-23T21:48:20.659Z,8.70
2023-02-23T21:53:22.396Z,8.64
2023-02-23T21:58:24.468Z,8.60
2023-02-23T22:03:27.315Z,8.53
2023-02-23T22:08:29.013Z,8.46
2023-02-23T22:13:36.350Z,8.42
2023-02-23T22:18:38.136Z,8.39
2023-02-23T22:23:41.649Z,8.32
2023-02-23T22:28:43.579Z,8.29
2023-02-23T22:33:45.416Z,8.25
2023-02-23T22:38:47.536Z,8.21
2023-02-23T22:43:49.221Z,8.17
2023-02-23T22:48:57.237Z,8.14
2023-02-23T22:53:58.926Z,8.10
2023-02-23T22:59:08.632Z,8.06
2023-02-23T23:04:10.599Z,8.03
2023-02-23T23:09:13.098Z,7.98
2023-02-23T23:14:14.762Z,7.94
2023-02-23T23:19:19.310Z,7.91
2023-02-23T23:24:23.039Z,7.85
2023-02-23T23:29:25.962Z,7.83
2023-02-23T23:34:27.734Z,7.81
2023-02-23T23:39:29.530Z,7.82
2023-02-23T23:44:33.798Z,7.82
2023-02-23T23:49:39.914Z,7.81
2023-02-23T23:54:42.840Z,7.77
2023-02-23T23:59:46.118Z,7.76
